Time;durP1;ratioP1;P1;durP2;ratioP2;P2;SDS_P1;SDS_P2;PMS_P1;PMS_P2;Temp;Humidity;BMP_temperature;BMP_pressure;BME280_temperature;BME280_humidity;BME280_pressure;Samples;Min_cycle;Max_cycle;Signal;HPM_P1;HPM_P2
2024/02/06 00:00:50;;;;;;;4.90;3.03;;;3.80;99.90;;;;;;5034899;28;20222;-74
2024/02/06 00:03:18;;;;;;;3.72;3.40;;;3.80;99.90;;;;;;5037167;28;20229;-74
2024/02/06 00:05:45;;;;;;;3.70;3.25;;;3.70;99.90;;;;;;5034837;28;20209;-74
2024/02/06 00:08:12;;;;;;;5.85;4.25;;;3.70;99.90;;;;;;5036379;28;20225;-74
2024/02/06 00:10:38;;;;;;;4.72;3.58;;;3.60;99.90;;;;;;5035819;28;20206;-74
2024/02/06 00:13:05;;;;;;;4.60;3.45;;;3.60;99.90;;;;;;5035739;28;20204;-74
2024/02/06 00:15:33;;;;;;;5.85;3.85;;;3.60;99.90;;;;;;5037069;28;20210;-74
2024/02/06 00:18:00;;;;;;;4.28;3.88;;;3.50;99.90;;;;;;5035643;28;20229;-74
2024/02/06 00:20:27;;;;;;;5.10;3.72;;;3.40;99.90;;;;;;5035464;28;20292;-74
2024/02/06 00:22:53;;;;;;;3.95;3.22;;;3.40;99.90;;;;;;5037257;28;20218;-74
2024/02/06 00:25:20;;;;;;;4.13;3.42;;;3.30;99.90;;;;;;5042305;28;20698;-74
2024/02/06 00:27:47;;;;;;;3.65;2.88;;;3.20;99.90;;;;;;5044374;28;20198;-74
2024/02/06 00:30:14;;;;;;;4.28;3.58;;;3.20;99.90;;;;;;5040779;28;20198;-74
2024/02/06 00:32:43;;;;;;;4.45;3.45;;;3.20;99.90;;;;;;5039634;28;20207;-74
2024/02/06 00:35:11;;;;;;;4.70;3.72;;;3.10;99.90;;;;;;5040493;28;20248;-74
2024/02/06 00:37:38;;;;;;;4.32;3.00;;;3.10;99.90;;;;;;5039875;28;20209;-74
2024/02/06 00:40:06;;;;;;;4.90;3.85;;;3.10;99.90;;;;;;5039557;28;20268;-74
2024/02/06 00:42:33;;;;;;;6.22;4.00;;;3.10;99.90;;;;;;5041026;28;20232;-74
2024/02/06 00:44:59;;;;;;;4.43;3.28;;;3.10;99.90;;;;;;5039474;28;20202;-74
2024/02/06 00:47:26;;;;;;;12.13;4.28;;;3.10;99.90;;;;;;5042226;28;20300;-74
2024/02/06 00:49:54;;;;;;;8.32;4.68;;;3.10;99.90;;;;;;5043793;28;20226;-74
2024/02/06 00:52:21;;;;;;;5.80;3.88;;;3.10;99.90;;;;;;5042103;28;20202;-75
2024/02/06 00:54:48;;;;;;;3.38;3.08;;;3.10;99.90;;;;;;5039034;28;20238;-74
2024/02/06 00:57:15;;;;;;;4.43;3.97;;;3.10;99.90;;;;;;5041111;28;20216;-74
2024/02/06 00:59:41;;;;;;;4.40;3.53;;;3.10;99.90;;;;;;5039908;28;20237;-74
2024/02/06 01:02:08;;;;;;;4.40;3.80;;;3.10;99.90;;;;;;5040177;28;20198;-75
2024/02/06 01:04:35;;;;;;;4.93;3.70;;;3.10;99.90;;;;;;5041406;28;20209;-74
2024/02/06 01:07:03;;;;;;;5.90;3.80;;;3.10;99.90;;;;;;5039227;28;20210;-74
2024/02/06 01:09:30;;;;;;;8.60;4.38;;;3.10;99.90;;;;;;5041820;28;20720;-74
2024/02/06 01:11:57;;;;;;;4.30;3.90;;;3.20;99.90;;;;;;5039469;28;20209;-74
2024/02/06 01:14:24;;;;;;;6.70;4.63;;;3.20;99.90;;;;;;5042631;28;20559;-74
2024/02/06 01:16:51;;;;;;;7.05;6.35;;;3.30;99.90;;;;;;5052298;28;20215;-74
2024/02/06 01:19:17;;;;;;;5.30;4.10;;;3.30;99.90;;;;;;5041761;28;20229;-75
2024/02/06 01:21:44;;;;;;;6.82;4.22;;;3.30;99.90;;;;;;5040248;28;20233;-74
2024/02/06 01:24:12;;;;;;;5.63;4.50;;;3.40;99.90;;;;;;5040778;28;20698;-74
2024/02/06 01:26:39;;;;;;;7.32;4.38;;;3.50;99.90;;;;;;5040916;28;20216;-74
2024/02/06 01:29:05;;;;;;;4.72;4.13;;;3.50;99.90;;;;;;5039899;28;20221;-74
2024/02/06 01:31:32;;;;;;;10.63;4.90;;;3.60;99.90;;;;;;5042165;28;20209;-74
2024/02/06 01:33:59;;;;;;;7.47;4.43;;;3.60;99.90;;;;;;5038723;28;20667;-74
2024/02/06 01:36:25;;;;;;;4.15;3.80;;;3.70;99.90;;;;;;5042815;28;20228;-74
2024/02/06 01:38:52;;;;;;;5.63;4.35;;;3.80;99.90;;;;;;5039068;28;20222;-75
2024/02/06 01:41:21;;;;;;;8.68;4.45;;;3.80;99.90;;;;;;5041989;28;20287;-74
2024/02/06 01:43:48;;;;;;;4.13;3.42;;;3.90;99.90;;;;;;5040058;28;20232;-74
2024/02/06 01:46:15;;;;;;;6.05;4.57;;;3.90;99.90;;;;;;5041384;28;20589;-74
2024/02/06 01:48:42;;;;;;;5.70;4.53;;;3.90;99.90;;;;;;5040931;28;20238;-74
2024/02/06 01:51:09;;;;;;;6.38;4.40;;;3.80;99.90;;;;;;5040561;28;20206;-74
2024/02/06 01:53:36;;;;;;;3.92;3.22;;;3.80;99.90;;;;;;5042102;28;20228;-74
2024/02/06 01:56:04;;;;;;;7.13;4.88;;;3.70;99.90;;;;;;5039593;28;20198;-74
2024/02/06 01:58:32;;;;;;;9.13;4.00;;;3.70;99.90;;;;;;5042769;28;20232;-74
2024/02/06 02:00:59;;;;;;;5.97;4.10;;;3.60;99.90;;;;;;5039721;28;20206;-74
2024/02/06 02:03:27;;;;;;;5.20;3.38;;;3.60;99.90;;;;;;5043149;28;20221;-74
2024/02/06 02:05:54;;;;;;;5.00;3.67;;;3.50;99.90;;;;;;5039647;28;20198;-74
2024/02/06 02:08:23;;;;;;;5.72;3.55;;;3.40;99.90;;;;;;5042366;28;20230;-74
2024/02/06 02:10:49;;;;;;;4.47;3.45;;;3.40;99.90;;;;;;5040395;28;20212;-74
2024/02/06 02:13:16;;;;;;;5.10;4.03;;;3.30;99.90;;;;;;5041710;28;20206;-74
2024/02/06 02:15:44;;;;;;;5.47;3.95;;;3.20;99.90;;;;;;5041169;28;20251;-74
2024/02/06 02:18:11;;;;;;;3.97;3.58;;;3.10;99.90;;;;;;5040980;28;20218;-74
2024/02/06 02:20:37;;;;;;;6.43;4.38;;;3.00;99.90;;;;;;5042113;28;20209;-74
2024/02/06 02:23:06;;;;;;;4.75;3.92;;;3.00;99.90;;;;;;5040193;28;20229;-74
2024/02/06 02:25:33;;;;;;;3.47;3.15;;;2.90;99.90;;;;;;5043161;28;20666;-74
2024/02/06 02:28:00;;;;;;;5.28;3.80;;;2.80;99.90;;;;;;5039504;28;20221;-74
2024/02/06 02:30:27;;;;;;;4.60;3.65;;;2.80;99.90;;;;;;5043290;28;20216;-74
2024/02/06 02:32:55;;;;;;;7.47;4.07;;;2.80;99.90;;;;;;5040260;28;20210;-74
2024/02/06 02:35:29;;;;;;;5.60;3.92;;;2.70;99.90;;;;;;5042568;28;20225;-74
2024/02/06 02:37:56;;;;;;;4.30;3.90;;;2.70;99.90;;;;;;5039807;28;20237;-74
2024/02/06 02:40:24;;;;;;;8.70;3.97;;;2.60;99.90;;;;;;5042883;28;20609;-74
2024/02/06 02:42:51;;;;;;;5.10;3.70;;;2.60;99.90;;;;;;5040550;28;20205;-74
2024/02/06 02:45:17;;;;;;;5.50;4.00;;;2.50;99.90;;;;;;5041918;28;20210;-74
2024/02/06 02:47:46;;;;;;;3.97;3.08;;;2.50;99.90;;;;;;5041665;28;20209;-74
2024/02/06 02:50:13;;;;;;;5.38;4.63;;;2.40;99.90;;;;;;5041680;28;20217;-74
2024/02/06 02:52:40;;;;;;;10.02;4.30;;;2.40;99.90;;;;;;5042796;28;20228;-74
2024/02/06 02:55:07;;;;;;;4.90;3.70;;;2.30;99.90;;;;;;5040781;28;20217;-74
2024/02/06 02:57:35;;;;;;;5.35;3.70;;;2.30;99.90;;;;;;5043281;28;20677;-74
2024/02/06 03:00:03;;;;;;;4.90;3.50;;;2.30;99.90;;;;;;5040064;28;20305;-74
2024/02/06 03:02:29;;;;;;;8.88;4.68;;;2.20;99.90;;;;;;5043759;28;20250;-75
2024/02/06 03:04:56;;;;;;;10.13;3.85;;;2.20;99.90;;;;;;5040686;28;20225;-75
2024/02/06 03:07:23;;;;;;;4.60;3.60;;;2.10;99.90;;;;;;5042941;28;20218;-75
2024/02/06 03:09:50;;;;;;;4.05;3.53;;;2.10;99.90;;;;;;5041644;28;20644;-74
2024/02/06 03:12:16;;;;;;;6.18;3.70;;;2.10;99.90;;;;;;5042352;28;20232;-74
2024/02/06 03:14:44;;;;;;;5.15;4.15;;;2.10;99.90;;;;;;5042878;28;20201;-74
2024/02/06 03:17:11;;;;;;;5.50;4.35;;;2.00;99.90;;;;;;5041720;28;20210;-74
2024/02/06 03:19:39;;;;;;;6.00;4.90;;;2.00;99.90;;;;;;5043569;28;20717;-74
2024/02/06 03:22:06;;;;;;;7.18;4.18;;;2.00;99.90;;;;;;5040876;28;20201;-74
2024/02/06 03:24:33;;;;;;;6.90;3.67;;;1.90;99.90;;;;;;5043848;28;20221;-74
2024/02/06 03:27:00;;;;;;;7.47;3.55;;;1.90;99.90;;;;;;5040653;28;20209;-74
2024/02/06 03:29:26;;;;;;;6.22;3.95;;;1.80;99.90;;;;;;5043906;28;20229;-74
2024/02/06 03:31:54;;;;;;;6.20;4.10;;;1.80;99.90;;;;;;5041778;28;20210;-74
2024/02/06 03:34:21;;;;;;;10.40;4.18;;;1.80;99.90;;;;;;5043341;28;20219;-74
2024/02/06 03:36:48;;;;;;;4.40;3.50;;;1.80;99.90;;;;;;5042565;28;20658;-74
2024/02/06 03:39:16;;;;;;;7.60;4.68;;;1.70;99.90;;;;;;5042667;28;20624;-75
2024/02/06 03:41:42;;;;;;;5.38;3.90;;;1.70;99.90;;;;;;5047129;28;20292;-75
2024/02/06 03:44:09;;;;;;;4.05;3.35;;;1.70;99.90;;;;;;5042116;28;20570;-75
2024/02/06 03:46:36;;;;;;;6.28;4.88;;;1.60;99.90;;;;;;5044250;28;20682;-75
2024/02/06 03:49:04;;;;;;;4.65;3.25;;;1.60;99.90;;;;;;5040824;28;20230;-74
2024/02/06 03:51:31;;;;;;;9.88;3.67;;;1.60;99.90;;;;;;5044600;28;20205;-75
2024/02/06 03:53:57;;;;;;;4.97;3.83;;;1.60;99.90;;;;;;5042095;28;20208;-75
2024/02/06 03:56:24;;;;;;;3.15;2.85;;;1.50;99.90;;;;;;5046522;28;20294;-75
2024/02/06 03:58:51;;;;;;;4.72;4.30;;;1.50;99.90;;;;;;5045987;28;20602;-75
2024/02/06 04:01:17;;;;;;;7.50;4.55;;;1.50;99.90;;;;;;5046975;28;20593;-75
2024/02/06 04:03:45;;;;;;;4.70;4.28;;;1.50;99.90;;;;;;5047942;28;20235;-75
2024/02/06 04:06:14;;;;;;;5.70;3.58;;;1.40;99.90;;;;;;5046159;28;20275;-74
2024/02/06 04:08:41;;;;;;;6.45;3.92;;;1.50;99.90;;;;;;5048591;28;20312;-75
2024/02/06 04:11:09;;;;;;;12.88;3.85;;;1.40;99.90;;;;;;5057614;28;20210;-75
2024/02/06 04:13:36;;;;;;;5.85;3.20;;;1.40;99.90;;;;;;5055703;28;20204;-74
2024/02/06 04:16:04;;;;;;;6.47;4.40;;;1.40;99.90;;;;;;5047547;28;22788;-75
2024/02/06 04:18:31;;;;;;;4.95;4.13;;;1.40;99.90;;;;;;5052800;28;20585;-75
2024/02/06 04:20:57;;;;;;;5.15;3.58;;;1.40;99.90;;;;;;5049874;28;20211;-75
2024/02/06 04:23:25;;;;;;;4.57;3.28;;;1.40;99.90;;;;;;5053003;28;20231;-76
2024/02/06 04:25:52;;;;;;;5.20;4.20;;;1.40;99.90;;;;;;5048844;28;20210;-75
2024/02/06 04:28:19;;;;;;;4.38;3.85;;;1.30;99.90;;;;;;5050449;28;20225;-77
2024/02/06 04:30:46;;;;;;;7.53;3.90;;;1.30;99.90;;;;;;5050507;28;20200;-75
2024/02/06 04:33:13;;;;;;;6.35;3.95;;;1.30;99.90;;;;;;5050716;28;20207;-76
2024/02/06 04:35:40;;;;;;;4.63;3.35;;;1.30;99.90;;;;;;5048920;28;20652;-76
2024/02/06 04:38:06;;;;;;;6.20;3.40;;;1.30;99.90;;;;;;5048720;28;20228;-76
2024/02/06 04:40:35;;;;;;;9.82;4.65;;;1.30;99.90;;;;;;5049994;28;20203;-75
2024/02/06 04:43:02;;;;;;;4.65;3.80;;;1.20;99.90;;;;;;5046226;28;20583;-75
2024/02/06 04:45:28;;;;;;;8.98;4.35;;;1.20;99.90;;;;;;5050977;28;20222;-76
2024/02/06 04:47:55;;;;;;;4.47;3.60;;;1.20;99.90;;;;;;5043910;28;20221;-76
2024/02/06 04:50:22;;;;;;;4.35;3.10;;;1.20;99.90;;;;;;5051821;28;20262;-76
2024/02/06 04:52:49;;;;;;;4.32;3.80;;;1.10;99.90;;;;;;5051572;28;20579;-75
2024/02/06 04:55:15;;;;;;;4.45;3.03;;;1.10;99.90;;;;;;5052576;28;20224;-76
2024/02/06 04:57:43;;;;;;;5.50;3.95;;;1.10;99.90;;;;;;5049543;28;20234;-77
2024/02/06 05:00:12;;;;;;;4.80;3.30;;;1.10;99.90;;;;;;5049688;28;20266;-76
2024/02/06 05:02:39;;;;;;;4.20;3.40;;;1.00;99.90;;;;;;5052728;28;20199;-76
2024/02/06 05:05:06;;;;;;;8.82;4.00;;;1.00;99.90;;;;;;5048219;28;20607;-74
2024/02/06 05:07:33;;;;;;;3.60;3.28;;;1.00;99.90;;;;;;5050828;28;20203;-74
2024/02/06 05:09:59;;;;;;;4.00;3.60;;;1.00;99.90;;;;;;5049787;28;20211;-74
2024/02/06 05:12:26;;;;;;;4.38;3.20;;;0.90;99.90;;;;;;5048078;28;20295;-75
2024/02/06 05:14:54;;;;;;;6.97;3.67;;;0.90;99.90;;;;;;5049172;28;20258;-74
2024/02/06 05:17:21;;;;;;;4.90;3.60;;;0.90;99.90;;;;;;5047515;28;20215;-74
2024/02/06 05:19:48;;;;;;;4.65;3.47;;;0.90;99.90;;;;;;5047213;28;20574;-74
2024/02/06 05:22:15;;;;;;;3.55;3.03;;;0.90;99.90;;;;;;5045907;28;20295;-74
2024/02/06 05:24:43;;;;;;;4.20;3.42;;;0.90;99.90;;;;;;5048957;28;20228;-74
2024/02/06 05:27:10;;;;;;;7.22;3.92;;;0.90;99.90;;;;;;5046815;28;20325;-74
2024/02/06 05:29:36;;;;;;;4.15;2.67;;;0.90;99.90;;;;;;5049048;28;20227;-74
2024/02/06 05:32:05;;;;;;;4.47;2.70;;;0.90;99.90;;;;;;5048786;28;20310;-74
2024/02/06 05:34:32;;;;;;;7.05;3.42;;;1.00;99.90;;;;;;5049351;28;20214;-74
2024/02/06 05:36:59;;;;;;;8.30;3.70;;;1.10;99.90;;;;;;5047456;28;20668;-74
2024/02/06 05:39:25;;;;;;;7.55;2.65;;;1.10;99.90;;;;;;5048878;28;20229;-74
2024/02/06 05:41:52;;;;;;;3.47;3.15;;;1.10;99.90;;;;;;5048720;28;20619;-74
2024/02/06 05:44:19;;;;;;;3.92;2.80;;;1.20;99.90;;;;;;5048102;28;20230;-74
2024/02/06 05:46:45;;;;;;;6.57;3.20;;;1.30;99.90;;;;;;5048801;28;20687;-74
2024/02/06 05:49:13;;;;;;;4.25;3.85;;;1.40;99.90;;;;;;5047051;28;20231;-74
2024/02/06 05:51:40;;;;;;;4.97;3.72;;;1.50;99.90;;;;;;5049440;28;20485;-74
2024/02/06 05:54:07;;;;;;;3.58;2.88;;;1.70;99.90;;;;;;5047290;28;20649;-74
2024/02/06 05:56:34;;;;;;;4.00;3.10;;;1.70;99.90;;;;;;5049146;28;20204;-74
2024/02/06 05:59:00;;;;;;;4.53;3.60;;;1.90;99.90;;;;;;5048099;28;20281;-74
2024/02/06 06:01:27;;;;;;;5.85;3.35;;;2.00;99.90;;;;;;5042240;28;20589;-74
2024/02/06 06:03:54;;;;;;;5.22;3.65;;;2.10;99.90;;;;;;5048925;28;20212;-74
2024/02/06 06:06:22;;;;;;;4.78;2.67;;;2.10;99.90;;;;;;5047770;28;20213;-74
2024/02/06 06:08:48;;;;;;;4.85;3.10;;;2.20;99.90;;;;;;5049257;28;20597;-74
2024/02/06 06:11:17;;;;;;;6.95;3.50;;;2.20;99.90;;;;;;5047645;28;20212;-74
2024/02/06 06:13:44;;;;;;;5.05;4.20;;;2.30;99.90;;;;;;5049474;28;20205;-74
2024/02/06 06:16:10;;;;;;;7.20;3.42;;;2.30;99.90;;;;;;5047628;28;20229;-74
2024/02/06 06:18:37;;;;;;;9.00;3.60;;;2.30;99.90;;;;;;5049397;28;20250;-74
2024/02/06 06:21:04;;;;;;;4.68;3.95;;;2.30;99.90;;;;;;5047226;28;20240;-74
2024/02/06 06:23:32;;;;;;;3.45;2.92;;;2.20;99.90;;;;;;5049499;28;20202;-74
2024/02/06 06:25:58;;;;;;;5.60;3.55;;;2.20;99.90;;;;;;5048323;28;20678;-74
2024/02/06 06:28:25;;;;;;;4.90;3.42;;;2.20;99.90;;;;;;5049196;28;20586;-75
2024/02/06 06:30:52;;;;;;;4.75;3.50;;;2.10;99.90;;;;;;5049524;28;20228;-74
2024/02/06 06:33:19;;;;;;;6.25;3.92;;;2.20;99.90;;;;;;5048364;28;20206;-74
2024/02/06 06:35:46;;;;;;;4.15;3.38;;;2.10;99.90;;;;;;5049254;28;20280;-75
2024/02/06 06:38:12;;;;;;;4.78;3.50;;;2.20;99.90;;;;;;5048042;28;20228;-74
2024/02/06 06:40:40;;;;;;;6.88;3.35;;;2.20;99.90;;;;;;5049495;28;20205;-74
2024/02/06 06:43:07;;;;;;;5.55;3.75;;;2.20;99.90;;;;;;5048170;28;20201;-74
2024/02/06 06:45:35;;;;;;;6.60;3.95;;;2.20;99.90;;;;;;5049519;28;20581;-74
2024/02/06 06:48:01;;;;;;;4.90;3.53;;;2.20;99.90;;;;;;5048471;28;20217;-74
2024/02/06 06:50:29;;;;;;;7.30;3.22;;;2.20;99.90;;;;;;5042367;28;20204;-74
2024/02/06 06:52:56;;;;;;;6.05;3.63;;;2.30;99.90;;;;;;5049822;28;20292;-74
2024/02/06 06:55:22;;;;;;;6.05;3.85;;;2.30;99.90;;;;;;5057912;28;20213;-74
2024/02/06 06:57:50;;;;;;;4.47;2.92;;;2.40;99.90;;;;;;5049614;28;20201;-74
2024/02/06 07:00:19;;;;;;;3.90;3.05;;;2.40;99.90;;;;;;5048836;28;20235;-74
2024/02/06 07:02:45;;;;;;;7.68;4.13;;;2.50;99.90;;;;;;5049864;28;20201;-74
2024/02/06 07:05:12;;;;;;;4.25;3.50;;;2.60;99.90;;;;;;5048959;28;20217;-74
2024/02/06 07:07:39;;;;;;;4.60;3.05;;;2.60;99.90;;;;;;5049753;28;20206;-74
2024/02/06 07:10:07;;;;;;;6.03;3.67;;;2.70;99.90;;;;;;5049228;28;20210;-74
2024/02/06 07:12:33;;;;;;;8.15;4.13;;;2.70;99.90;;;;;;5049927;28;20202;-74
2024/02/06 07:15:03;;;;;;;4.30;2.50;;;2.80;99.90;;;;;;5049830;28;20205;-74
2024/02/06 07:17:30;;;;;;;7.63;2.60;;;2.80;99.90;;;;;;5042245;28;20209;-74
2024/02/06 07:19:58;;;;;;;2.88;2.55;;;2.90;99.90;;;;;;5050156;28;20208;-75
2024/02/06 07:22:24;;;;;;;5.63;2.72;;;2.90;99.90;;;;;;5049235;28;20216;-74
2024/02/06 07:24:52;;;;;;;3.05;2.50;;;3.10;99.90;;;;;;5050177;28;20727;-74
2024/02/06 07:27:18;;;;;;;4.32;2.53;;;3.10;99.90;;;;;;5049703;28;20205;-74
2024/02/06 07:29:45;;;;;;;4.10;3.10;;;3.20;99.90;;;;;;5050435;28;20602;-75
2024/02/06 07:32:13;;;;;;;4.38;3.00;;;3.30;99.90;;;;;;5051944;28;20209;-74
2024/02/06 07:34:40;;;;;;;4.45;2.67;;;3.30;99.90;;;;;;5054741;28;20208;-74
2024/02/06 07:37:06;;;;;;;3.10;2.63;;;3.50;99.90;;;;;;5054040;28;20197;-74
2024/02/06 07:39:33;;;;;;;3.67;2.67;;;3.50;99.90;;;;;;5054497;28;20227;-76
2024/02/06 07:42:00;;;;;;;6.30;3.40;;;3.60;99.90;;;;;;5054601;28;20682;-75
2024/02/06 07:44:26;;;;;;;8.13;3.03;;;3.70;99.90;;;;;;5050825;28;20201;-74
2024/02/06 07:46:53;;;;;;;4.03;2.47;;;3.70;99.90;;;;;;5034556;28;20667;-73
2024/02/06 07:49:21;;;;;;;4.18;2.63;;;3.80;99.90;;;;;;5034277;28;20714;-74
2024/02/06 07:51:48;;;;;;;4.30;2.25;;;3.80;99.90;;;;;;5034587;28;20581;-74
2024/02/06 07:54:15;;;;;;;3.08;2.20;;;3.90;99.90;;;;;;5034885;28;20214;-74
2024/02/06 07:56:41;;;;;;;2.90;2.55;;;3.90;99.90;;;;;;5034621;28;20221;-74
2024/02/06 07:59:11;;;;;;;3.50;2.65;;;4.00;99.90;;;;;;5034559;28;20229;-74
2024/02/06 08:01:38;;;;;;;4.18;2.20;;;4.00;99.90;;;;;;5034612;28;20641;-74
2024/02/06 08:04:05;;;;;;;3.38;2.33;;;4.10;99.90;;;;;;5035178;28;20205;-74
2024/02/06 08:06:33;;;;;;;2.75;2.42;;;4.10;99.90;;;;;;5050246;28;20690;-74
2024/02/06 08:08:59;;;;;;;5.97;2.15;;;4.20;99.90;;;;;;5034895;28;20233;-74
2024/02/06 08:11:26;;;;;;;3.15;2.60;;;4.20;99.90;;;;;;5034985;28;20206;-74
2024/02/06 08:13:53;;;;;;;3.38;2.45;;;4.30;99.90;;;;;;5035051;28;20705;-74
2024/02/06 08:16:19;;;;;;;5.05;2.85;;;4.30;99.90;;;;;;5034839;28;20213;-74
2024/02/06 08:18:46;;;;;;;2.58;2.25;;;4.30;99.90;;;;;;5035011;28;20222;-74
2024/02/06 08:21:13;;;;;;;8.25;3.33;;;4.40;99.90;;;;;;5035235;28;20740;-74
2024/02/06 08:23:41;;;;;;;2.58;2.38;;;4.40;99.90;;;;;;5035233;28;20210;-74
2024/02/06 08:26:08;;;;;;;4.60;2.70;;;4.50;99.90;;;;;;5034963;28;20221;-74
2024/02/06 08:28:35;;;;;;;3.20;2.67;;;4.60;99.90;;;;;;5035182;28;20233;-74
2024/02/06 08:31:01;;;;;;;2.40;1.73;;;4.60;99.90;;;;;;5034833;28;20206;-74
2024/02/06 08:33:29;;;;;;;4.95;2.70;;;4.60;99.90;;;;;;5035000;28;20263;-74
2024/02/06 08:35:55;;;;;;;6.38;3.05;;;4.60;99.90;;;;;;5034766;28;20199;-72
2024/02/06 08:38:22;;;;;;;4.45;2.63;;;4.70;99.90;;;;;;5035137;28;20713;-72
2024/02/06 08:40:50;;;;;;;4.45;2.72;;;4.70;99.90;;;;;;5035122;28;20202;-74
2024/02/06 08:43:17;;;;;;;4.30;2.55;;;4.80;99.90;;;;;;5035058;28;20202;-74
2024/02/06 08:45:43;;;;;;;4.60;3.13;;;4.90;99.90;;;;;;5034905;28;20726;-73
2024/02/06 08:48:10;;;;;;;2.75;2.30;;;5.00;99.90;;;;;;5035645;28;20218;-73
2024/02/06 08:50:37;;;;;;;5.07;2.30;;;5.00;99.90;;;;;;5039148;28;20232;-73
2024/02/06 08:53:05;;;;;;;4.82;2.28;;;5.00;99.90;;;;;;5038812;28;20213;-73
2024/02/06 08:55:31;;;;;;;4.38;2.70;;;5.10;99.90;;;;;;5036081;28;20374;-73
2024/02/06 08:57:59;;;;;;;3.30;2.55;;;5.20;99.90;;;;;;5037434;28;20222;-73
2024/02/06 09:00:26;;;;;;;3.20;2.05;;;5.20;99.90;;;;;;5042144;28;20216;-73
2024/02/06 09:02:53;;;;;;;5.57;2.50;;;5.30;99.90;;;;;;5037814;28;20218;-73
2024/02/06 09:05:20;;;;;;;2.50;2.00;;;5.30;99.90;;;;;;5044847;28;20225;-73
2024/02/06 09:07:46;;;;;;;6.47;2.40;;;5.30;99.90;;;;;;5035494;28;20332;-73
2024/02/06 09:10:13;;;;;;;3.35;1.55;;;5.40;99.90;;;;;;5042630;28;20566;-73
2024/02/06 09:12:40;;;;;;;3.38;2.28;;;5.50;99.90;;;;;;5038326;28;20248;-73
2024/02/06 09:15:09;;;;;;;4.00;3.42;;;5.60;99.90;;;;;;5040360;28;20260;-74
2024/02/06 09:17:37;;;;;;;2.50;2.30;;;5.70;99.90;;;;;;5038338;28;20207;-74
2024/02/06 09:20:06;;;;;;;3.63;1.92;;;5.80;99.90;;;;;;5039696;28;20590;-74
2024/02/06 09:22:39;;;;;;;6.07;2.00;;;5.90;99.90;;;;;;5045532;28;20214;-74
2024/02/06 09:25:07;;;;;;;2.78;1.73;;;6.00;99.90;;;;;;5045792;28;20786;-74
2024/02/06 09:27:43;;;;;;;3.33;2.70;;;6.10;99.90;;;;;;5035343;28;20227;-75
2024/02/06 09:30:17;;;;;;;2.72;2.35;;;6.20;99.90;;;;;;5035832;28;20674;-74
2024/02/06 09:32:44;;;;;;;2.53;2.33;;;6.30;99.90;;;;;;5039733;28;20207;-74
2024/02/06 09:35:11;;;;;;;2.53;1.95;;;6.40;99.90;;;;;;5037753;28;20211;-74
2024/02/06 09:37:38;;;;;;;1.92;1.65;;;6.40;99.90;;;;;;5037901;28;20211;-74
2024/02/06 09:40:06;;;;;;;2.05;1.95;;;6.50;99.90;;;;;;5044868;28;20620;-74
2024/02/06 09:42:35;;;;;;;2.10;1.50;;;6.50;99.90;;;;;;5035391;28;20211;-75
2024/02/06 09:45:02;;;;;;;5.50;1.40;;;6.60;99.90;;;;;;5034727;28;20212;-74
2024/02/06 09:47:30;;;;;;;1.88;1.60;;;6.70;99.90;;;;;;5034824;28;20593;-74
2024/02/06 09:49:57;;;;;;;3.15;2.10;;;6.80;99.90;;;;;;5035082;28;20235;-74
2024/02/06 09:52:26;;;;;;;3.00;1.85;;;6.90;99.90;;;;;;5036427;28;20208;-74
2024/02/06 09:54:53;;;;;;;6.57;2.83;;;6.90;99.90;;;;;;5034116;28;20294;-74
2024/02/06 09:57:22;;;;;;;3.80;1.73;;;7.00;99.90;;;;;;5036807;28;20204;-74
2024/02/06 09:59:52;;;;;;;1.77;1.60;;;6.90;99.90;;;;;;5035050;28;20228;-74
2024/02/06 10:02:23;;;;;;;2.85;2.40;;;7.00;99.90;;;;;;5037045;28;20210;-74
2024/02/06 10:04:55;;;;;;;1.75;1.58;;;7.00;99.90;;;;;;5035410;28;20712;-74
2024/02/06 10:07:23;;;;;;;1.80;1.60;;;7.20;99.90;;;;;;5036816;28;20236;-74
2024/02/06 10:09:51;;;;;;;3.15;1.63;;;7.30;99.90;;;;;;5035151;28;20256;-74
2024/02/06 10:12:18;;;;;;;1.88;1.33;;;7.40;99.90;;;;;;5037268;28;20686;-74
2024/02/06 10:14:46;;;;;;;1.85;1.10;;;7.60;99.90;;;;;;5044266;28;20296;-74
2024/02/06 10:17:20;;;;;;;1.20;0.98;;;7.70;99.90;;;;;;5106445;27;20538;-75
2024/02/06 10:19:47;;;;;;;1.85;1.40;;;7.80;99.90;;;;;;5107038;28;20250;-76
2024/02/06 10:22:14;;;;;;;1.50;1.38;;;8.00;99.90;;;;;;5108572;28;20203;-74
2024/02/06 10:24:41;;;;;;;1.45;1.00;;;8.00;99.90;;;;;;5107726;28;20207;-75
2024/02/06 10:27:08;;;;;;;1.70;1.40;;;8.00;99.90;;;;;;5108237;28;20196;-74
2024/02/06 10:29:34;;;;;;;4.22;1.50;;;8.00;99.90;;;;;;5105133;28;20227;-74
2024/02/06 10:32:01;;;;;;;1.35;1.25;;;7.90;99.90;;;;;;5106641;28;20209;-74
2024/02/06 10:34:30;;;;;;;1.30;1.00;;;7.90;99.90;;;;;;5107029;28;20195;-74
2024/02/06 10:36:58;;;;;;;1.35;1.00;;;7.90;99.90;;;;;;5106928;28;20584;-75
2024/02/06 10:39:28;;;;;;;1.23;0.90;;;7.90;99.90;;;;;;5106857;28;20258;-74
2024/02/06 10:41:59;;;;;;;1.30;1.20;;;7.90;99.90;;;;;;5107912;28;20332;-74
2024/02/06 10:44:28;;;;;;;2.45;1.10;;;8.00;99.90;;;;;;5107565;28;20215;-74
2024/02/06 10:46:59;;;;;;;1.30;1.20;;;8.10;99.90;;;;;;5107658;28;20200;-74
2024/02/06 10:49:26;;;;;;;1.30;1.13;;;8.10;99.90;;;;;;5107120;28;20237;-74
2024/02/06 10:52:02;;;;;;;1.63;1.20;;;8.20;99.90;;;;;;5107978;28;20199;-75
2024/02/06 10:54:29;;;;;;;1.33;0.90;;;8.20;99.90;;;;;;5104864;28;20331;-74
2024/02/06 10:57:03;;;;;;;1.60;1.20;;;8.30;99.90;;;;;;5107477;28;20216;-74
2024/02/06 10:59:34;;;;;;;2.45;0.95;;;8.20;99.90;;;;;;5104257;28;20671;-75
2024/02/06 11:02:10;;;;;;;2.15;1.38;;;8.30;99.90;;;;;;5107826;28;20199;-75
2024/02/06 11:04:40;;;;;;;1.40;1.08;;;8.30;99.90;;;;;;5105486;28;20214;-75
2024/02/06 11:07:11;;;;;;;1.27;0.90;;;8.40;99.90;;;;;;5107447;28;20200;-74
2024/02/06 11:09:40;;;;;;;2.22;1.20;;;8.40;99.90;;;;;;5106651;28;20226;-75
2024/02/06 11:12:10;;;;;;;2.15;1.40;;;8.40;99.90;;;;;;5107169;28;20204;-74
2024/02/06 11:14:40;;;;;;;2.92;1.10;;;8.30;99.90;;;;;;5106873;28;20206;-75
2024/02/06 11:17:09;;;;;;;2.80;1.10;;;8.40;99.90;;;;;;5107225;28;20224;-74
2024/02/06 11:19:45;;;;;;;2.53;1.20;;;8.40;99.90;;;;;;5106451;28;20302;-74
2024/02/06 11:22:23;;;;;;;3.08;1.10;;;8.50;99.90;;;;;;5107323;28;20291;-74
2024/02/06 11:24:51;;;;;;;1.40;1.05;;;8.50;99.90;;;;;;5106564;28;20238;-74
2024/02/06 11:27:18;;;;;;;1.38;1.00;;;8.80;99.90;;;;;;5101336;28;20196;-74
2024/02/06 11:29:46;;;;;;;2.33;1.40;;;9.20;99.90;;;;;;5092853;28;20232;-74
2024/02/06 11:32:14;;;;;;;1.40;1.20;;;9.70;99.90;;;;;;5093589;28;20565;-75
2024/02/06 11:34:47;;;;;;;1.80;1.30;;;10.10;99.90;;;;;;5092790;28;20201;-75
2024/02/06 11:37:25;;;;;;;1.85;1.50;;;10.20;99.90;;;;;;5093024;28;20697;-75
2024/02/06 11:40:04;;;;;;;2.05;1.75;;;10.40;99.90;;;;;;5087816;28;20227;-75
2024/02/06 11:42:30;;;;;;;1.67;1.45;;;10.50;99.90;;;;;;5090344;28;20205;-75
2024/02/06 11:45:05;;;;;;;1.20;1.05;;;10.60;99.90;;;;;;5092029;28;20697;-75
2024/02/06 11:47:31;;;;;;;1.85;1.35;;;10.60;99.90;;;;;;5090230;28;20195;-74
2024/02/06 11:50:07;;;;;;;1.95;1.75;;;10.30;99.90;;;;;;5092374;28;20226;-75
2024/02/06 11:52:35;;;;;;;1.33;1.13;;;9.70;99.90;;;;;;5090700;28;20204;-75
2024/02/06 11:55:03;;;;;;;2.95;1.65;;;9.40;99.90;;;;;;5094659;28;20407;-74
2024/02/06 11:57:31;;;;;;;1.85;1.55;;;9.50;99.90;;;;;;5089353;28;20311;-75
2024/02/06 11:59:57;;;;;;;2.30;1.60;;;9.50;99.90;;;;;;5100115;28;20269;-75
2024/02/06 12:02:24;;;;;;;1.77;1.13;;;9.50;99.90;;;;;;5092913;28;20204;-74
2024/02/06 12:04:51;;;;;;;2.80;1.80;;;9.60;99.90;;;;;;5097212;28;20201;-74
2024/02/06 12:07:19;;;;;;;2.72;1.40;;;9.60;99.90;;;;;;5092611;28;20575;-76
2024/02/06 12:09:49;;;;;;;1.58;1.20;;;9.50;99.90;;;;;;5092616;28;20319;-76
2024/02/06 12:12:17;;;;;;;2.00;1.33;;;9.40;99.90;;;;;;5093693;28;20561;-75
2024/02/06 12:14:45;;;;;;;3.38;1.35;;;9.30;99.90;;;;;;5091770;28;20215;-75
2024/02/06 12:17:13;;;;;;;2.97;1.45;;;9.30;99.90;;;;;;5092038;28;20248;-75
2024/02/06 12:19:41;;;;;;;3.03;1.45;;;9.20;99.90;;;;;;5092078;28;20224;-74
2024/02/06 12:22:08;;;;;;;2.38;1.48;;;9.00;99.90;;;;;;5092422;28;20210;-75
2024/02/06 12:24:35;;;;;;;1.60;1.08;;;9.00;99.90;;;;;;5091988;28;20204;-75
2024/02/06 12:27:05;;;;;;;2.17;1.50;;;9.00;99.90;;;;;;5091508;28;20196;-74
2024/02/06 12:29:37;;;;;;;3.15;1.60;;;9.00;99.90;;;;;;5089056;28;20647;-75
2024/02/06 12:32:04;;;;;;;3.55;1.75;;;9.00;99.90;;;;;;5092180;28;20639;-75
2024/02/06 12:34:32;;;;;;;2.22;1.38;;;9.00;99.90;;;;;;5092212;28;20592;-75
2024/02/06 12:36:59;;;;;;;1.20;1.08;;;8.90;99.90;;;;;;5091716;28;20235;-75
2024/02/06 12:39:26;;;;;;;2.65;1.45;;;8.90;99.90;;;;;;5091021;28;20227;-75
2024/02/06 12:41:59;;;;;;;4.05;1.50;;;8.80;99.90;;;;;;5091952;28;20203;-75
2024/02/06 12:44:28;;;;;;;1.50;1.38;;;8.70;99.90;;;;;;5092175;28;20204;-74
2024/02/06 12:46:56;;;;;;;1.33;1.00;;;8.60;99.90;;;;;;5091665;28;20208;-75
2024/02/06 12:49:24;;;;;;;1.98;1.23;;;8.60;99.90;;;;;;5092382;28;20243;-74
2024/02/06 12:51:51;;;;;;;2.97;1.70;;;8.60;99.90;;;;;;5091955;28;20207;-75
2024/02/06 12:54:18;;;;;;;2.95;1.10;;;8.70;99.90;;;;;;5092408;28;20250;-75
2024/02/06 12:56:44;;;;;;;3.30;1.10;;;8.70;99.90;;;;;;5095402;28;20229;-75
2024/02/06 12:59:11;;;;;;;3.00;1.75;;;8.70;99.90;;;;;;5092226;28;20471;-76